createdAt,value
2017-06-04T00:00:07.777Z,69.60
2017-06-04T00:02:36.217Z,70.20
2017-06-04T00:05:05.432Z,71.00
2017-06-04T00:07:33.845Z,70.40
2017-06-04T00:10:02.608Z,71.20
2017-06-04T00:12:31.060Z,71.20
2017-06-04T00:15:00.254Z,72.50
2017-06-04T00:17:29.489Z,72.90
2017-06-04T00:19:57.917Z,72.80
2017-06-04T00:22:26.329Z,73.00
2017-06-04T00:24:55.509Z,73.40
2017-06-04T00:27:24.689Z,73.10
2017-06-04T00:29:53.140Z,73.10
2017-06-04T00:32:21.572Z,73.80
2017-06-04T00:34:50.748Z,74.60
2017-06-04T00:37:19.171Z,73.80
2017-06-04T00:39:47.593Z,74.20
2017-06-04T00:42:16.046Z,74.90
2017-06-04T00:44:44.453Z,74.30
2017-06-04T00:47:12.872Z,73.80
2017-06-04T00:49:41.312Z,74.50
2017-06-04T00:52:09.750Z,75.10
2017-06-04T00:54:38.186Z,75.10
2017-06-04T00:57:06.697Z,76.50
2017-06-04T00:59:35.229Z,76.50
2017-06-04T01:02:03.657Z,77.00
2017-06-04T01:04:32.080Z,77.00
2017-06-04T01:07:00.504Z,77.50
2017-06-04T01:09:29.685Z,77.70
2017-06-04T01:11:59.957Z,77.20
2017-06-04T01:14:28.384Z,77.20
2017-06-04T01:16:56.817Z,77.50
2017-06-04T01:19:25.250Z,77.30
2017-06-04T01:21:54.465Z,77.90
2017-06-04T01:24:22.889Z,77.90
2017-06-04T01:26:51.335Z,78.20
2017-06-04T01:29:19.754Z,79.00
2017-06-04T01:31:48.202Z,79.00
2017-06-04T01:34:16.623Z,79.60
2017-06-04T01:36:45.142Z,80.40
2017-06-04T01:39:14.265Z,80.60
2017-06-04T01:41:42.700Z,81.10
2017-06-04T01:44:11.900Z,81.40
2017-06-04T01:46:40.733Z,81.90
2017-06-04T01:49:09.152Z,81.80
2017-06-04T01:51:37.925Z,81.90
2017-06-04T01:54:06.348Z,81.80
2017-06-04T01:56:34.805Z,81.40
2017-06-04T01:59:04.015Z,81.50
2017-06-04T02:01:32.433Z,81.40
2017-06-04T02:04:00.869Z,81.90
2017-06-04T02:06:30.088Z,81.80
2017-06-04T02:08:58.531Z,81.70
2017-06-04T02:11:27.726Z,81.90
2017-06-04T02:13:56.139Z,81.90
2017-06-04T02:16:24.585Z,81.80
2017-06-04T02:18:53.817Z,82.30
2017-06-04T02:21:22.249Z,82.00
2017-06-04T02:23:50.680Z,82.70
2017-06-04T02:26:19.100Z,82.90
2017-06-04T02:28:47.541Z,82.90
2017-06-04T02:31:15.958Z,82.70
2017-06-04T02:33:44.398Z,82.70
2017-06-04T02:36:12.815Z,83.00
2017-06-04T02:38:41.229Z,83.40
2017-06-04T02:41:10.428Z,83.10
2017-06-04T02:43:39.626Z,82.60
2017-06-04T02:46:08.101Z,82.60
2017-06-04T02:48:37.297Z,82.90
2017-06-04T02:51:06.467Z,82.80
2017-06-04T02:53:34.913Z,82.70
2017-06-04T02:56:03.337Z,83.00
2017-06-04T02:58:31.772Z,82.80
2017-06-04T03:01:00.224Z,82.50
2017-06-04T03:03:28.712Z,82.70
2017-06-04T03:05:57.188Z,82.70
2017-06-04T03:08:25.599Z,82.20
2017-06-04T03:10:54.046Z,82.30
2017-06-04T03:13:22.481Z,82.90
2017-06-04T03:15:50.904Z,82.60
2017-06-04T03:18:18.992Z,82.10
2017-06-04T03:20:47.416Z,82.60
2017-06-04T03:23:15.869Z,82.40
2017-06-04T03:25:44.407Z,82.50
2017-06-04T03:28:12.831Z,82.80
2017-06-04T03:30:41.347Z,82.40
2017-06-04T03:33:09.852Z,82.80
2017-06-04T03:35:38.289Z,82.30
2017-06-04T03:38:06.711Z,81.90
2017-06-04T03:40:35.132Z,81.70
2017-06-04T03:43:03.559Z,81.90
2017-06-04T03:45:31.983Z,81.90
2017-06-04T03:48:00.428Z,81.70
2017-06-04T03:50:28.837Z,81.80
2017-06-04T03:52:57.256Z,81.40
2017-06-04T03:55:26.455Z,82.70
2017-06-04T03:57:55.639Z,82.30
2017-06-04T04:00:24.074Z,82.30
2017-06-04T04:02:52.491Z,82.30
2017-06-04T04:05:20.901Z,81.90
2017-06-04T04:07:50.105Z,82.00
2017-06-04T04:10:18.516Z,82.00
2017-06-04T04:12:46.964Z,82.30
2017-06-04T04:15:15.436Z,82.60
2017-06-04T04:17:44.628Z,82.60
2017-06-04T04:20:14.405Z,82.70
2017-06-04T04:22:43.629Z,82.30
2017-06-04T04:25:12.842Z,83.70
2017-06-04T04:27:42.021Z,82.30
2017-06-04T04:30:11.209Z,83.10
2017-06-04T04:32:39.730Z,82.20
2017-06-04T04:35:08.148Z,82.70
2017-06-04T04:37:36.588Z,82.60
2017-06-04T04:40:05.017Z,82.60
2017-06-04T04:42:33.427Z,82.50
2017-06-04T04:45:02.629Z,82.40
2017-06-04T04:47:31.109Z,82.30
2017-06-04T04:49:59.562Z,82.20
2017-06-04T04:52:27.981Z,82.00
2017-06-04T04:54:56.400Z,82.40
2017-06-04T04:57:24.832Z,82.40
2017-06-04T04:59:53.255Z,82.80
2017-06-04T05:02:21.687Z,83.30
2017-06-04T05:04:50.105Z,82.60
2017-06-04T05:07:18.530Z,82.90
2017-06-04T05:09:47.848Z,82.30
2017-06-04T05:12:16.272Z,82.30
2017-06-04T05:14:44.724Z,82.30
2017-06-04T05:17:13.148Z,82.20
2017-06-04T05:19:41.560Z,82.50
2017-06-04T05:22:15.473Z,83.00
2017-06-04T05:24:43.721Z,82.80
2017-06-04T05:27:11.958Z,82.70
2017-06-04T05:29:40.388Z,82.90
2017-06-04T05:32:09.597Z,82.50
2017-06-04T05:34:38.020Z,82.50
2017-06-04T05:37:06.448Z,82.20
2017-06-04T05:39:34.900Z,82.20
2017-06-04T05:42:03.314Z,82.30
2017-06-04T05:44:31.768Z,82.80
2017-06-04T05:47:00.188Z,83.10
2017-06-04T05:49:28.609Z,82.90
2017-06-04T05:51:57.042Z,82.30
2017-06-04T05:54:25.514Z,82.30
2017-06-04T05:56:53.960Z,82.90
2017-06-04T05:59:23.194Z,82.80
2017-06-04T06:01:51.617Z,82.70
2017-06-04T06:04:20.057Z,83.00
2017-06-04T06:06:48.476Z,82.90
2017-06-04T06:09:16.909Z,83.20
2017-06-04T06:11:45.332Z,82.80
2017-06-04T06:14:13.859Z,82.30
2017-06-04T06:16:42.313Z,81.80
2017-06-04T06:19:11.503Z,82.00
2017-06-04T06:21:40.075Z,82.00
2017-06-04T06:24:08.501Z,81.10
2017-06-04T06:26:36.984Z,80.80
2017-06-04T06:29:05.426Z,80.40
2017-06-04T06:31:33.864Z,79.70
2017-06-04T06:34:02.377Z,79.30
2017-06-04T06:36:30.799Z,79.20
2017-06-04T06:38:59.241Z,79.00
2017-06-04T06:41:27.682Z,79.00
2017-06-04T06:43:56.100Z,78.70
2017-06-04T06:46:24.561Z,79.10
2017-06-04T06:48:52.992Z,79.40
2017-06-04T06:51:21.386Z,79.10
2017-06-04T06:53:49.813Z,79.20
2017-06-04T06:56:18.232Z,78.40
2017-06-04T06:58:46.677Z,77.90
2017-06-04T07:01:15.858Z,77.70
2017-06-04T07:03:44.272Z,78.50
2017-06-04T07:06:12.716Z,78.00
2017-06-04T07:08:41.153Z,78.10
2017-06-04T07:11:09.597Z,79.00
2017-06-04T07:13:38.817Z,78.10
2017-06-04T07:16:07.229Z,78.10
2017-06-04T07:18:35.677Z,78.20
2017-06-04T07:21:04.111Z,77.70
2017-06-04T07:23:32.520Z,77.30
2017-06-04T07:26:01.722Z,75.40
2017-06-04T07:28:30.146Z,75.40
2017-06-04T07:30:58.567Z,75.70
2017-06-04T07:33:27.881Z,75.30
2017-06-04T07:35:56.303Z,75.30
2017-06-04T07:38:24.721Z,73.40
2017-06-04T07:40:53.958Z,74.00
2017-06-04T07:43:22.442Z,73.90
2017-06-04T07:45:50.852Z,73.60
2017-06-04T07:48:19.503Z,72.90
2017-06-04T07:50:48.516Z,72.30
2017-06-04T07:53:17.046Z,73.00
2017-06-04T07:55:45.645Z,72.30
2017-06-04T07:58:14.670Z,72.40
2017-06-04T08:00:43.158Z,70.60
2017-06-04T08:03:11.610Z,71.40
2017-06-04T08:05:40.023Z,70.80
2017-06-04T08:08:08.450Z,70.10
2017-06-04T08:10:36.887Z,70.70
2017-06-04T08:13:05.326Z,70.80
2017-06-04T08:15:33.744Z,70.80
2017-06-04T08:18:02.204Z,69.80
2017-06-04T08:20:30.626Z,70.80
2017-06-04T08:22:59.731Z,71.30
2017-06-04T08:25:28.429Z,69.80
2017-06-04T08:27:56.849Z,68.70
2017-06-04T08:30:25.281Z,67.80
2017-06-04T08:32:53.736Z,67.80
2017-06-04T08:35:22.946Z,65.50
2017-06-04T08:37:52.135Z,64.50
2017-06-04T08:40:21.349Z,65.00
2017-06-04T08:42:49.823Z,65.70
2017-06-04T08:45:18.245Z,64.50
2017-06-04T08:47:46.675Z,64.70
2017-06-04T08:50:15.971Z,64.10
2017-06-04T08:52:45.168Z,61.60
2017-06-04T08:55:14.376Z,62.60
2017-06-04T08:57:42.818Z,62.40
2017-06-04T09:00:11.233Z,63.40
2017-06-04T09:02:39.716Z,59.90
2017-06-04T09:05:08.807Z,59.30
2017-06-04T09:07:37.246Z,58.90
2017-06-04T09:10:05.691Z,58.10
2017-06-04T09:12:34.104Z,59.00
2017-06-04T09:15:02.548Z,58.40
2017-06-04T09:17:31.014Z,59.60
2017-06-04T09:19:59.456Z,57.50
2017-06-04T09:22:28.694Z,56.40
2017-06-04T09:24:57.163Z,55.90
2017-06-04T09:27:25.593Z,55.30
2017-06-04T09:29:54.397Z,55.10
2017-06-04T09:32:23.149Z,53.60
2017-06-04T09:34:51.678Z,54.00
2017-06-04T09:37:21.170Z,52.70
2017-06-04T09:39:49.609Z,52.70
2017-06-04T09:42:18.084Z,51.20
2017-06-04T09:44:46.675Z,51.60
2017-06-04T09:47:15.325Z,50.60
2017-06-04T09:49:43.991Z,50.80
2017-06-04T09:52:13.248Z,49.50
2017-06-04T09:54:41.703Z,49.40
2017-06-04T09:57:10.165Z,48.40
2017-06-04T09:59:38.588Z,48.20
2017-06-04T10:02:07.124Z,47.20
2017-06-04T10:04:35.653Z,46.70
2017-06-04T10:07:06.985Z,49.60
2017-06-04T10:09:35.433Z,48.70
2017-06-04T10:12:03.925Z,48.00
2017-06-04T10:14:32.431Z,47.00
2017-06-04T10:17:01.043Z,45.40
2017-06-04T10:19:30.405Z,46.10
2017-06-04T10:21:58.892Z,46.10
2017-06-04T10:24:27.339Z,46.30
2017-06-04T10:26:56.115Z,45.60
2017-06-04T10:29:24.601Z,44.20
2017-06-04T10:31:59.532Z,45.10
2017-06-04T10:34:32.106Z,45.80
2017-06-04T10:37:00.680Z,48.00
2017-06-04T10:39:29.875Z,46.00
2017-06-04T10:41:58.289Z,45.90
2017-06-04T10:44:26.738Z,47.20
2017-06-04T10:46:55.214Z,47.30
2017-06-04T10:49:24.396Z,47.10
2017-06-04T10:51:53.612Z,49.70
2017-06-04T10:54:22.097Z,49.70
2017-06-04T10:56:50.528Z,47.60
2017-06-04T10:59:18.970Z,47.20
2017-06-04T11:01:47.402Z,50.80
2017-06-04T11:04:15.834Z,49.90
2017-06-04T11:06:44.265Z,47.60
2017-06-04T11:09:13.457Z,45.30
2017-06-04T11:11:41.900Z,45.40
2017-06-04T11:14:10.342Z,47.20
2017-06-04T11:16:39.519Z,48.70
2017-06-04T11:19:08.751Z,46.30
2017-06-04T11:21:37.205Z,46.20
2017-06-04T11:24:06.377Z,47.70
2017-06-04T11:26:34.789Z,46.80
2017-06-04T11:29:03.984Z,46.90
2017-06-04T11:31:32.396Z,46.70
2017-06-04T11:34:00.840Z,48.00
2017-06-04T11:36:30.044Z,46.60
2017-06-04T11:38:58.469Z,46.50
2017-06-04T11:41:26.877Z,47.10
2017-06-04T11:43:55.312Z,46.30
2017-06-04T11:46:23.732Z,46.10
2017-06-04T11:48:52.149Z,47.00
2017-06-04T11:51:20.580Z,47.20
2017-06-04T11:53:48.988Z,46.80
2017-06-04T11:56:18.173Z,46.20
2017-06-04T11:58:46.603Z,46.10
2017-06-04T12:01:15.017Z,45.50
2017-06-04T12:03:43.420Z,44.90
2017-06-04T12:06:11.876Z,43.80
2017-06-04T12:08:40.292Z,47.20
2017-06-04T12:11:08.712Z,44.90
2017-06-04T12:13:37.153Z,45.40
2017-06-04T12:16:05.565Z,46.60
2017-06-04T12:18:33.994Z,46.70
2017-06-04T12:21:03.193Z,45.80
2017-06-04T12:23:31.612Z,45.70
2017-06-04T12:26:00.040Z,44.70
2017-06-04T12:28:29.236Z,46.20
2017-06-04T12:30:58.416Z,44.40
2017-06-04T12:33:27.515Z,44.40
2017-06-04T12:35:55.973Z,44.20
2017-06-04T12:38:24.404Z,44.70
2017-06-04T12:40:52.821Z,44.50
2017-06-04T12:43:21.248Z,44.90
2017-06-04T12:45:50.433Z,46.20
2017-06-04T12:48:18.859Z,46.00
2017-06-04T12:50:47.288Z,46.10
2017-06-04T12:53:16.641Z,46.70
2017-06-04T12:55:45.059Z,46.90
2017-06-04T12:58:13.488Z,46.20
2017-06-04T13:00:41.917Z,46.20
2017-06-04T13:03:10.325Z,47.00
2017-06-04T13:05:38.765Z,46.90
2017-06-04T13:08:07.195Z,47.10
2017-06-04T13:10:35.610Z,47.60
2017-06-04T13:13:04.049Z,48.10
2017-06-04T13:15:32.484Z,48.70
2017-06-04T13:18:00.894Z,49.50
2017-06-04T13:20:30.108Z,50.60
2017-06-04T13:22:58.528Z,50.50
2017-06-04T13:25:26.934Z,51.70
2017-06-04T13:27:55.365Z,52.40
2017-06-04T13:30:23.825Z,52.90
2017-06-04T13:32:52.246Z,52.80
2017-06-04T13:35:20.741Z,52.90
2017-06-04T13:37:49.144Z,53.70
2017-06-04T13:40:18.330Z,54.30
2017-06-04T13:42:47.670Z,53.80
2017-06-04T13:45:16.080Z,53.70
2017-06-04T13:47:44.501Z,54.00
2017-06-04T13:50:13.694Z,55.60
2017-06-04T13:52:42.873Z,55.50
2017-06-04T13:55:11.281Z,55.50
2017-06-04T13:57:39.756Z,56.20
2017-06-04T14:00:08.176Z,58.10
2017-06-04T14:02:36.595Z,58.20
2017-06-04T14:05:05.106Z,57.20
2017-06-04T14:07:33.335Z,57.60
2017-06-04T14:10:01.845Z,57.50
2017-06-04T14:12:31.088Z,57.50
2017-06-04T14:14:59.500Z,58.00
2017-06-04T14:17:27.947Z,57.60
2017-06-04T14:19:56.382Z,57.40
2017-06-04T14:22:25.556Z,57.50
2017-06-04T14:24:54.077Z,57.50
2017-06-04T14:27:22.527Z,57.40
2017-06-04T14:29:51.715Z,57.30
2017-06-04T14:32:20.130Z,57.20
2017-06-04T14:34:48.579Z,57.60
2017-06-04T14:37:16.988Z,57.40
2017-06-04T14:39:45.419Z,57.60
2017-06-04T14:42:13.865Z,57.20
2017-06-04T14:44:42.269Z,55.50
2017-06-04T14:47:10.733Z,55.20
2017-06-04T14:49:39.260Z,54.30
2017-06-04T14:52:08.496Z,53.00
2017-06-04T14:54:36.928Z,52.90
2017-06-04T14:57:06.131Z,53.70
2017-06-04T14:59:35.317Z,54.40
2017-06-04T15:02:03.821Z,54.40
2017-06-04T15:04:32.545Z,53.50
2017-06-04T15:07:00.973Z,53.90
2017-06-04T15:09:30.161Z,55.00
2017-06-04T15:11:59.419Z,54.70
2017-06-04T15:14:27.837Z,54.10
2017-06-04T15:16:56.230Z,54.80
2017-06-04T15:19:25.446Z,54.90
2017-06-04T15:21:53.888Z,54.20
2017-06-04T15:24:22.353Z,55.30
2017-06-04T15:26:50.813Z,54.20
2017-06-04T15:29:19.409Z,53.40
2017-06-04T15:32:00.845Z,54.70
2017-06-04T15:34:38.041Z,55.00
2017-06-04T15:37:07.301Z,54.80
2017-06-04T15:39:35.809Z,54.70
2017-06-04T15:42:05.916Z,54.90
2017-06-04T15:44:34.625Z,54.20
2017-06-04T15:47:03.075Z,53.70
2017-06-04T15:49:32.312Z,53.90
2017-06-04T15:52:00.772Z,53.80
2017-06-04T15:54:29.331Z,54.10
2017-06-04T15:56:58.833Z,54.50
2017-06-04T15:59:27.417Z,54.40
2017-06-04T16:01:56.539Z,54.20
2017-06-04T16:04:25.033Z,54.00
2017-06-04T16:06:53.715Z,53.90
2017-06-04T16:09:22.529Z,53.40
2017-06-04T16:11:51.086Z,53.30
2017-06-04T16:14:19.592Z,53.30
2017-06-04T16:16:48.476Z,52.70
2017-06-04T16:19:17.104Z,52.80
2017-06-04T16:21:45.570Z,51.70
2017-06-04T16:24:14.807Z,53.60
2017-06-04T16:26:43.261Z,52.80
2017-06-04T16:29:12.496Z,53.60
2017-06-04T16:31:40.970Z,52.90
2017-06-04T16:34:09.388Z,53.20
2017-06-04T16:36:38.135Z,53.50
2017-06-04T16:39:06.597Z,54.60
2017-06-04T16:41:35.095Z,54.20
2017-06-04T16:44:05.109Z,52.90
2017-06-04T16:46:34.773Z,52.20
2017-06-04T16:49:03.999Z,52.20
2017-06-04T16:51:32.981Z,52.50
2017-06-04T16:54:01.825Z,52.30
2017-06-04T16:56:34.525Z,52.10
2017-06-04T16:59:03.244Z,53.60
2017-06-04T17:01:31.678Z,52.60
2017-06-04T17:04:00.300Z,53.00
2017-06-04T17:06:28.767Z,52.70
2017-06-04T17:08:57.949Z,52.50
2017-06-04T17:11:26.381Z,52.40
2017-06-04T17:13:54.805Z,52.90
2017-06-04T17:16:23.234Z,52.80
2017-06-04T17:18:51.792Z,53.80
2017-06-04T17:21:20.205Z,52.10
2017-06-04T17:23:48.647Z,52.00
2017-06-04T17:26:17.845Z,51.30
2017-06-04T17:28:47.013Z,50.60
2017-06-04T17:31:15.416Z,50.50
2017-06-04T17:33:44.935Z,50.20
2017-06-04T17:36:14.813Z,50.30
2017-06-04T17:38:43.252Z,50.20
2017-06-04T17:41:12.650Z,50.20
2017-06-04T17:43:41.306Z,50.30
2017-06-04T17:46:09.848Z,50.50
2017-06-04T17:48:38.288Z,50.40
2017-06-04T17:51:06.743Z,50.10
2017-06-04T17:53:35.157Z,50.30
2017-06-04T17:56:04.303Z,50.40
2017-06-04T17:58:33.505Z,50.50
2017-06-04T18:01:02.351Z,50.50
2017-06-04T18:03:30.807Z,50.10
2017-06-04T18:06:00.004Z,50.30
2017-06-04T18:08:28.416Z,50.50
2017-06-04T18:10:56.965Z,51.30
2017-06-04T18:13:25.408Z,51.20
2017-06-04T18:15:54.682Z,51.40
2017-06-04T18:18:23.121Z,51.40
2017-06-04T18:20:51.357Z,51.30
2017-06-04T18:23:20.352Z,51.30
2017-06-04T18:25:49.370Z,51.30
2017-06-04T18:28:17.597Z,51.30
2017-06-04T18:30:46.482Z,51.50
2017-06-04T18:33:15.075Z,51.50
2017-06-04T18:35:43.486Z,51.10
2017-06-04T18:38:11.938Z,51.50
2017-06-04T18:40:40.009Z,51.70
2017-06-04T18:43:09.193Z,51.40
2017-06-04T18:45:37.681Z,51.40
2017-06-04T18:48:06.112Z,51.70
2017-06-04T18:50:34.581Z,51.40
2017-06-04T18:53:02.993Z,52.20
2017-06-04T18:55:31.432Z,51.50
2017-06-04T18:57:59.871Z,51.90
2017-06-04T19:00:28.279Z,52.20
2017-06-04T19:02:57.486Z,53.00
2017-06-04T19:05:25.969Z,53.00
2017-06-04T19:07:54.397Z,52.90
2017-06-04T19:10:22.857Z,53.40
2017-06-04T19:12:51.270Z,53.50
2017-06-04T19:15:19.684Z,53.70
2017-06-04T19:17:48.158Z,54.00
2017-06-04T19:20:16.590Z,54.60
2017-06-04T19:22:45.123Z,54.40
2017-06-04T19:25:13.564Z,54.50
2017-06-04T19:27:41.976Z,55.00
2017-06-04T19:30:10.382Z,54.90
2017-06-04T19:32:38.825Z,55.00
2017-06-04T19:35:08.030Z,55.30
2017-06-04T19:37:36.476Z,55.20
2017-06-04T19:40:04.946Z,55.30
2017-06-04T19:42:33.347Z,55.50
2017-06-04T19:45:02.759Z,56.00
2017-06-04T19:47:31.976Z,55.80
2017-06-04T19:50:00.394Z,55.80
2017-06-04T19:52:28.806Z,56.80
2017-06-04T19:54:58.016Z,57.30
2017-06-04T19:57:27.194Z,56.70
2017-06-04T19:59:56.378Z,57.80
2017-06-04T20:02:24.817Z,57.10
2017-06-04T20:04:53.245Z,57.00
2017-06-04T20:07:22.353Z,57.30
2017-06-04T20:09:51.573Z,57.60
2017-06-04T20:12:19.985Z,57.60
2017-06-04T20:14:48.418Z,57.50
2017-06-04T20:17:17.645Z,58.00
2017-06-04T20:19:46.094Z,57.90
2017-06-04T20:22:15.265Z,57.90
2017-06-04T20:24:43.710Z,57.80
2017-06-04T20:27:12.153Z,58.00
2017-06-04T20:29:40.572Z,58.00
2017-06-04T20:32:09.030Z,58.60
2017-06-04T20:34:37.454Z,58.50
2017-06-04T20:37:05.867Z,58.70
2017-06-04T20:39:34.315Z,58.70
2017-06-04T20:42:02.751Z,58.80
2017-06-04T20:44:31.168Z,58.50
2017-06-04T20:46:59.569Z,58.20
2017-06-04T20:49:28.752Z,58.20
2017-06-04T20:51:57.203Z,58.20
2017-06-04T20:54:25.671Z,58.50
2017-06-04T20:56:54.085Z,58.60
2017-06-04T20:59:22.587Z,59.00
2017-06-04T21:01:51.789Z,59.40
2017-06-04T21:04:20.981Z,59.00
2017-06-04T21:06:50.156Z,59.10
2017-06-04T21:09:18.572Z,59.00
2017-06-04T21:11:46.998Z,59.00
2017-06-04T21:14:15.407Z,59.00
2017-06-04T21:16:44.605Z,58.60
2017-06-04T21:19:13.814Z,58.40
2017-06-04T21:21:43.018Z,58.00
2017-06-04T21:24:11.478Z,57.90
2017-06-04T21:26:40.707Z,57.70
2017-06-04T21:29:09.180Z,57.60
2017-06-04T21:31:37.636Z,57.20
2017-06-04T21:34:06.815Z,55.80
2017-06-04T21:36:35.240Z,55.80
2017-06-04T21:39:03.369Z,54.80
2017-06-04T21:41:31.844Z,53.30
2017-06-04T21:44:00.260Z,52.70
2017-06-04T21:46:28.827Z,52.50
2017-06-04T21:48:58.000Z,52.10
2017-06-04T21:51:26.520Z,52.10
2017-06-04T21:53:55.237Z,51.40
2017-06-04T21:56:24.346Z,51.00
2017-06-04T21:58:52.758Z,50.70
2017-06-04T22:01:21.985Z,50.70
2017-06-04T22:03:50.415Z,50.10
2017-06-04T22:06:18.954Z,49.30
2017-06-04T22:08:47.384Z,48.80
2017-06-04T22:11:15.805Z,48.50
2017-06-04T22:13:44.246Z,47.80
2017-06-04T22:16:12.692Z,48.50
2017-06-04T22:18:41.119Z,48.70
2017-06-04T22:21:10.297Z,49.20
2017-06-04T22:23:38.737Z,49.20
2017-06-04T22:26:07.160Z,48.50
2017-06-04T22:28:35.579Z,48.20
2017-06-04T22:31:04.035Z,48.00
2017-06-04T22:33:33.209Z,48.70
2017-06-04T22:36:01.644Z,48.60
2017-06-04T22:38:30.078Z,48.50
2017-06-04T22:40:59.256Z,48.80
2017-06-04T22:43:27.669Z,48.80
2017-06-04T22:45:56.878Z,49.70
2017-06-04T22:48:25.286Z,49.60
2017-06-04T22:50:53.696Z,50.40
2017-06-04T22:53:22.150Z,51.10
2017-06-04T22:55:50.583Z,51.40
2017-06-04T22:58:19.770Z,52.30
2017-06-04T23:00:49.004Z,51.70
2017-06-04T23:03:17.411Z,51.80
2017-06-04T23:05:45.824Z,52.30
2017-06-04T23:08:15.033Z,52.90
2017-06-04T23:10:43.700Z,52.80
2017-06-04T23:13:12.128Z,53.10
2017-06-04T23:15:40.575Z,52.70
2017-06-04T23:18:09.752Z,52.80
2017-06-04T23:20:38.929Z,52.90
2017-06-04T23:23:07.397Z,52.90
2017-06-04T23:25:35.801Z,52.90
2017-06-04T23:28:04.226Z,53.00
2017-06-04T23:30:32.674Z,53.00
2017-06-04T23:33:01.866Z,53.90
2017-06-04T23:35:31.057Z,53.90
2017-06-04T23:37:59.523Z,53.90
2017-06-04T23:40:27.933Z,53.90
2017-06-04T23:42:56.349Z,53.70
2017-06-04T23:45:24.798Z,53.60
2017-06-04T23:47:53.224Z,53.70
2017-06-04T23:50:21.662Z,54.00
2017-06-04T23:52:50.082Z,54.10
2017-06-04T23:55:19.199Z,53.80
2017-06-04T23:57:47.617Z,53.70
